createdAt,value
2018-09-09T00:01:58.463Z,5.10
2018-09-09T00:04:27.580Z,4.93
2018-09-09T00:06:56.726Z,5.40
2018-09-09T00:09:31.303Z,5.50
2018-09-09T00:12:00.435Z,5.63
2018-09-09T00:14:29.569Z,5.70
2018-09-09T00:16:58.687Z,5.40
2018-09-09T00:19:27.825Z,5.90
2018-09-09T00:21:57.029Z,5.57
2018-09-09T00:24:32.998Z,5.97
2018-09-09T00:27:02.166Z,6.27
2018-09-09T00:29:31.380Z,6.37
2018-09-09T00:32:00.599Z,6.40
2018-09-09T00:34:29.800Z,6.77
2018-09-09T00:36:58.996Z,6.50
2018-09-09T00:39:28.140Z,5.93
2018-09-09T00:41:57.252Z,6.50
2018-09-09T00:44:26.407Z,6.67
2018-09-09T00:46:56.069Z,6.90
2018-09-09T00:49:30.709Z,6.33
2018-09-09T00:52:05.221Z,7.13
2018-09-09T00:54:34.425Z,6.20
2018-09-09T00:57:03.659Z,6.83
2018-09-09T00:59:32.823Z,7.17
2018-09-09T01:02:02.116Z,7.10
2018-09-09T01:04:31.270Z,6.97
2018-09-09T01:07:00.494Z,7.27
2018-09-09T01:09:33.301Z,7.07
2018-09-09T01:12:03.852Z,7.30
2018-09-09T01:14:34.566Z,7.17
2018-09-09T01:17:03.858Z,7.63
2018-09-09T01:19:33.191Z,7.70
2018-09-09T01:22:03.284Z,8.13
2018-09-09T01:24:32.441Z,7.80
2018-09-09T01:27:01.814Z,7.73
2018-09-09T01:29:30.937Z,8.27
2018-09-09T01:32:00.732Z,8.77
2018-09-09T01:34:29.888Z,8.53
2018-09-09T01:36:58.973Z,9.60
2018-09-09T01:39:28.245Z,9.40
2018-09-09T01:41:57.412Z,8.80
2018-09-09T01:44:26.540Z,9.43
2018-09-09T01:46:55.843Z,9.30
2018-09-09T01:49:25.098Z,9.30
2018-09-09T01:51:54.219Z,9.33
2018-09-09T01:54:23.449Z,10.27
2018-09-09T01:56:52.610Z,9.90
2018-09-09T01:59:21.772Z,10.03
2018-09-09T02:01:50.905Z,10.53
2018-09-09T02:04:20.034Z,10.57
2018-09-09T02:06:49.140Z,9.80
2018-09-09T02:09:25.324Z,10.27
2018-09-09T02:11:54.477Z,9.80
2018-09-09T02:14:23.676Z,11.33
2018-09-09T02:16:52.857Z,11.20
2018-09-09T02:19:22.004Z,11.77
2018-09-09T02:21:51.107Z,10.27
2018-09-09T02:24:20.251Z,11.23
2018-09-09T02:26:49.372Z,11.47
2018-09-09T02:29:18.525Z,10.97
2018-09-09T02:31:47.797Z,10.90
2018-09-09T02:34:16.951Z,11.90
2018-09-09T02:36:46.073Z,11.80
2018-09-09T02:39:18.800Z,11.40
2018-09-09T02:41:47.969Z,11.77
2018-09-09T02:44:17.123Z,11.83
2018-09-09T02:46:46.329Z,12.27
2018-09-09T02:49:15.452Z,11.83
2018-09-09T02:51:44.545Z,11.33
2018-09-09T02:54:13.669Z,11.07
2018-09-09T02:56:42.804Z,11.90
2018-09-09T02:59:12.559Z,12.00
2018-09-09T03:01:41.773Z,12.07
2018-09-09T03:04:10.866Z,11.47
2018-09-09T03:06:40.090Z,11.63
2018-09-09T03:09:10.068Z,11.73
2018-09-09T03:11:39.152Z,11.57
2018-09-09T03:14:08.327Z,11.63
2018-09-09T03:16:38.131Z,11.97
2018-09-09T03:19:07.269Z,11.77
2018-09-09T03:21:36.407Z,11.37
2018-09-09T03:24:06.104Z,12.17
2018-09-09T03:26:35.231Z,12.17
2018-09-09T03:29:05.336Z,13.40
2018-09-09T03:31:34.492Z,13.53
2018-09-09T03:34:04.351Z,13.30
2018-09-09T03:36:33.540Z,13.70
2018-09-09T03:39:04.882Z,14.27
2018-09-09T03:41:34.016Z,13.90
2018-09-09T03:44:03.205Z,13.63
2018-09-09T03:46:32.348Z,14.20
2018-09-09T03:49:01.449Z,14.70
2018-09-09T03:51:30.591Z,14.67
2018-09-09T03:53:59.730Z,13.77
2018-09-09T03:56:29.022Z,13.73
2018-09-09T03:58:58.397Z,13.50
2018-09-09T04:01:27.513Z,14.30
2018-09-09T04:03:56.760Z,14.07
2018-09-09T04:06:26.140Z,14.83
2018-09-09T04:08:55.250Z,14.70
2018-09-09T04:11:24.396Z,14.00
2018-09-09T04:13:53.684Z,14.20
2018-09-09T04:16:24.546Z,14.43
2018-09-09T04:18:53.706Z,14.47
2018-09-09T04:21:22.925Z,14.87
2018-09-09T04:23:52.056Z,15.13
2018-09-09T04:26:21.225Z,15.67
2018-09-09T04:28:50.356Z,15.00
2018-09-09T04:31:19.489Z,15.23
2018-09-09T04:33:48.682Z,15.77
2018-09-09T04:36:17.900Z,16.20
2018-09-09T04:38:47.024Z,15.87
2018-09-09T04:41:16.143Z,16.27
2018-09-09T04:43:45.250Z,16.63
2018-09-09T04:46:15.015Z,16.20
2018-09-09T04:48:44.182Z,16.63
2018-09-09T04:51:13.274Z,17.30
2018-09-09T04:53:42.512Z,17.90
2018-09-09T04:56:11.627Z,17.63
2018-09-09T04:58:41.345Z,18.90
2018-09-09T05:01:10.537Z,18.67
2018-09-09T05:03:40.432Z,21.37
2018-09-09T05:06:12.376Z,21.27
2018-09-09T05:08:41.559Z,21.67
2018-09-09T05:11:10.668Z,21.37
2018-09-09T05:13:39.904Z,20.97
2018-09-09T05:16:09.059Z,21.10
2018-09-09T05:18:38.320Z,19.63
2018-09-09T05:21:07.464Z,19.67
2018-09-09T05:23:36.847Z,19.93
2018-09-09T05:26:06.121Z,19.47
2018-09-09T05:28:35.237Z,18.53
2018-09-09T05:31:04.405Z,19.90
2018-09-09T05:33:33.632Z,20.17
2018-09-09T05:36:02.951Z,19.50
2018-09-09T05:38:32.096Z,19.97
2018-09-09T05:41:01.318Z,20.43
2018-09-09T05:43:30.420Z,21.30
2018-09-09T05:45:59.585Z,19.90
2018-09-09T05:48:28.693Z,21.20
2018-09-09T05:50:57.901Z,20.83
2018-09-09T05:53:27.071Z,20.37
2018-09-09T05:55:56.244Z,20.07
2018-09-09T05:58:25.513Z,20.40
2018-09-09T06:00:54.660Z,19.57
2018-09-09T06:03:23.767Z,18.37
2018-09-09T06:05:53.036Z,19.53
2018-09-09T06:08:22.184Z,18.87
2018-09-09T06:10:53.325Z,17.83
2018-09-09T06:13:23.875Z,18.70
2018-09-09T06:15:53.046Z,17.87
2018-09-09T06:18:22.157Z,18.80
2018-09-09T06:20:51.332Z,17.30
2018-09-09T06:23:20.459Z,18.30
2018-09-09T06:25:49.563Z,18.33
2018-09-09T06:28:18.659Z,17.40
2018-09-09T06:30:47.825Z,18.53
2018-09-09T06:33:16.943Z,17.87
2018-09-09T06:35:46.229Z,18.47
2018-09-09T06:38:15.353Z,18.37
2018-09-09T06:40:44.555Z,17.77
2018-09-09T06:43:13.867Z,17.03
2018-09-09T06:45:42.971Z,18.93
2018-09-09T06:48:12.175Z,18.23
2018-09-09T06:50:41.420Z,17.97
2018-09-09T06:53:10.666Z,17.80
2018-09-09T06:55:39.879Z,18.40
2018-09-09T06:58:09.100Z,17.37
2018-09-09T07:00:38.307Z,18.07
2018-09-09T07:03:07.469Z,18.13
2018-09-09T07:05:36.832Z,17.37
2018-09-09T07:08:06.119Z,17.87
2018-09-09T07:10:35.267Z,16.97
2018-09-09T07:13:04.465Z,17.90
2018-09-09T07:15:33.736Z,18.47
2018-09-09T07:18:02.851Z,18.13
2018-09-09T07:20:32.052Z,17.07
2018-09-09T07:23:01.233Z,18.00
2018-09-09T07:25:30.449Z,16.90
2018-09-09T07:27:59.571Z,16.20
2018-09-09T07:30:29.082Z,17.67
2018-09-09T07:32:58.332Z,17.53
2018-09-09T07:35:27.436Z,17.77
2018-09-09T07:37:56.672Z,17.03
2018-09-09T07:40:26.148Z,17.07
2018-09-09T07:42:56.121Z,17.63
2018-09-09T07:45:25.262Z,16.27
2018-09-09T07:47:54.484Z,17.10
2018-09-09T07:50:23.740Z,16.30
2018-09-09T07:52:53.797Z,16.37
2018-09-09T07:55:22.923Z,15.63
2018-09-09T07:57:52.065Z,15.77
2018-09-09T08:00:21.792Z,16.47
2018-09-09T08:02:50.840Z,16.30
2018-09-09T08:05:20.064Z,16.37
2018-09-09T08:07:49.267Z,16.23
2018-09-09T08:10:18.436Z,16.10
2018-09-09T08:12:47.579Z,16.40
2018-09-09T08:15:16.695Z,15.20
2018-09-09T08:17:46.148Z,14.60
2018-09-09T08:20:15.376Z,14.40
2018-09-09T08:22:44.536Z,13.83
2018-09-09T08:25:13.667Z,12.57
2018-09-09T08:27:42.808Z,12.80
2018-09-09T08:30:12.044Z,12.20
2018-09-09T08:32:41.196Z,12.73
2018-09-09T08:35:10.345Z,12.63
2018-09-09T08:37:39.588Z,11.70
2018-09-09T08:40:15.745Z,12.70
2018-09-09T08:42:44.916Z,12.50
2018-09-09T08:45:14.124Z,12.57
2018-09-09T08:47:43.331Z,10.73
2018-09-09T08:50:12.504Z,11.93
2018-09-09T08:52:41.713Z,12.23
2018-09-09T08:55:10.864Z,11.83
2018-09-09T08:57:40.069Z,10.50
2018-09-09T09:00:09.265Z,10.87
2018-09-09T09:02:38.438Z,10.63
2018-09-09T09:05:07.661Z,9.90
2018-09-09T09:07:36.790Z,10.50
2018-09-09T09:10:06.091Z,10.63
2018-09-09T09:12:35.228Z,11.33
2018-09-09T09:15:04.473Z,10.63
2018-09-09T09:17:33.604Z,10.37
2018-09-09T09:20:02.827Z,10.73
2018-09-09T09:22:31.945Z,9.47
2018-09-09T09:25:01.065Z,10.37
2018-09-09T09:27:30.253Z,10.33
2018-09-09T09:29:59.715Z,10.23
2018-09-09T09:32:28.855Z,10.67
2018-09-09T09:34:58.043Z,10.50
2018-09-09T09:37:27.890Z,11.07
2018-09-09T09:39:57.003Z,10.53
2018-09-09T09:42:26.200Z,9.63
2018-09-09T09:44:55.512Z,10.10
2018-09-09T09:47:24.651Z,9.40
2018-09-09T09:49:54.446Z,9.57
2018-09-09T09:52:23.567Z,9.40
2018-09-09T09:54:52.754Z,9.33
2018-09-09T09:57:21.992Z,9.77
2018-09-09T09:59:51.132Z,7.77
2018-09-09T10:02:20.333Z,8.17
2018-09-09T10:04:49.550Z,7.90
2018-09-09T10:07:18.690Z,7.97
2018-09-09T10:09:47.842Z,7.10
2018-09-09T10:12:16.955Z,6.27
2018-09-09T10:14:46.760Z,4.80
2018-09-09T10:17:22.592Z,4.73
2018-09-09T10:19:51.820Z,4.60
2018-09-09T10:22:20.963Z,4.30
2018-09-09T10:24:50.249Z,4.60
2018-09-09T10:27:19.405Z,4.37
2018-09-09T10:29:48.579Z,4.60
2018-09-09T10:32:18.385Z,4.77
2018-09-09T10:34:47.521Z,4.47
2018-09-09T10:37:16.623Z,4.50
2018-09-09T10:39:45.820Z,4.00
2018-09-09T10:42:15.673Z,4.10
2018-09-09T10:44:44.908Z,3.87
2018-09-09T10:47:14.226Z,3.53
2018-09-09T10:49:43.384Z,3.80
2018-09-09T10:52:12.541Z,3.90
2018-09-09T10:54:41.899Z,4.20
2018-09-09T10:57:11.049Z,4.40
2018-09-09T10:59:40.277Z,4.70
2018-09-09T11:02:09.646Z,4.50
2018-09-09T11:04:38.759Z,4.97
2018-09-09T11:07:08.976Z,4.70
2018-09-09T11:09:38.479Z,4.73
2018-09-09T11:12:08.414Z,4.67
2018-09-09T11:14:41.895Z,4.77
2018-09-09T11:17:16.000Z,4.53
2018-09-09T11:19:45.161Z,3.87
2018-09-09T11:22:14.344Z,4.03
2018-09-09T11:24:44.376Z,3.90
2018-09-09T11:27:30.952Z,4.17
2018-09-09T11:30:00.986Z,4.20
2018-09-09T11:32:30.124Z,4.10
2018-09-09T11:34:59.262Z,3.67
2018-09-09T11:37:28.406Z,3.10
2018-09-09T11:39:57.602Z,2.80
2018-09-09T11:42:26.755Z,3.97
2018-09-09T11:44:55.937Z,4.93
2018-09-09T11:47:25.151Z,5.60
2018-09-09T11:49:54.392Z,5.87
2018-09-09T11:52:23.597Z,5.13
2018-09-09T11:54:52.849Z,4.90
2018-09-09T11:57:22.018Z,5.27
2018-09-09T11:59:51.243Z,4.83
2018-09-09T12:02:20.597Z,4.23
2018-09-09T12:04:52.381Z,3.77
2018-09-09T12:07:21.509Z,3.57
2018-09-09T12:09:50.707Z,3.73
2018-09-09T12:12:19.946Z,4.07
2018-09-09T12:14:49.178Z,3.40
2018-09-09T12:17:18.511Z,3.27
2018-09-09T12:19:47.702Z,3.47
2018-09-09T12:22:16.852Z,3.40
2018-09-09T12:24:46.008Z,3.13
2018-09-09T12:27:15.266Z,3.20
2018-09-09T12:29:44.457Z,3.50
2018-09-09T12:32:13.657Z,3.00
2018-09-09T12:34:42.853Z,3.03
2018-09-09T12:37:12.082Z,3.63
2018-09-09T12:39:41.219Z,2.90
2018-09-09T12:42:10.901Z,2.57
2018-09-09T12:44:45.645Z,2.40
2018-09-09T12:47:20.210Z,2.87
2018-09-09T12:49:49.361Z,2.70
2018-09-09T12:52:18.530Z,2.60
2018-09-09T12:54:48.229Z,2.37
2018-09-09T12:57:17.348Z,2.23
2018-09-09T12:59:46.607Z,2.07
2018-09-09T13:02:15.798Z,2.00
2018-09-09T13:04:44.962Z,2.03
2018-09-09T13:07:14.708Z,1.80
2018-09-09T13:09:43.780Z,2.00
2018-09-09T13:12:13.005Z,2.07
2018-09-09T13:14:42.187Z,1.80
2018-09-09T13:17:11.399Z,1.70
2018-09-09T13:19:41.496Z,2.13
2018-09-09T13:22:10.741Z,1.73
2018-09-09T13:24:39.895Z,1.60
2018-09-09T13:27:09.125Z,2.20
2018-09-09T13:29:38.226Z,1.77
2018-09-09T13:32:07.368Z,1.50
2018-09-09T13:34:36.481Z,1.57
2018-09-09T13:37:05.924Z,1.50
2018-09-09T13:39:35.093Z,1.90
2018-09-09T13:42:04.312Z,1.80
2018-09-09T13:44:33.518Z,1.80
2018-09-09T13:47:02.692Z,2.20
2018-09-09T13:49:31.951Z,2.13
2018-09-09T13:52:01.148Z,2.10
2018-09-09T13:54:30.648Z,2.47
2018-09-09T13:56:59.768Z,2.40
2018-09-09T13:59:29.189Z,2.47
2018-09-09T14:01:58.477Z,2.50
2018-09-09T14:04:27.652Z,2.50
2018-09-09T14:06:56.783Z,2.33
2018-09-09T14:09:26.493Z,2.30
2018-09-09T14:11:55.613Z,1.80
2018-09-09T14:14:24.760Z,2.03
2018-09-09T14:16:53.879Z,2.00
2018-09-09T14:19:23.026Z,1.80
2018-09-09T14:21:52.556Z,1.70
2018-09-09T14:24:21.662Z,2.13
2018-09-09T14:26:50.852Z,2.10
2018-09-09T14:29:20.015Z,2.00
2018-09-09T14:31:49.415Z,1.90
2018-09-09T14:34:18.714Z,2.27
2018-09-09T14:36:47.850Z,2.00
2018-09-09T14:39:17.081Z,2.37
2018-09-09T14:41:46.272Z,2.20
2018-09-09T14:44:15.401Z,2.40
2018-09-09T14:46:44.563Z,2.50
2018-09-09T14:49:13.680Z,2.40
2018-09-09T14:51:42.848Z,2.60
2018-09-09T14:54:12.001Z,2.63
2018-09-09T14:56:41.131Z,2.70
2018-09-09T14:59:10.317Z,3.07
2018-09-09T15:01:39.468Z,3.00
2018-09-09T15:04:08.636Z,3.20
2018-09-09T15:06:37.819Z,3.30
2018-09-09T15:09:08.955Z,3.07
2018-09-09T15:11:38.244Z,3.10
2018-09-09T15:14:07.412Z,3.67
2018-09-09T15:16:36.638Z,3.40
2018-09-09T15:19:06.584Z,3.40
2018-09-09T15:21:35.766Z,3.17
2018-09-09T15:24:05.664Z,3.63
2018-09-09T15:26:34.912Z,3.60
2018-09-09T15:29:04.172Z,3.40
2018-09-09T15:31:33.528Z,3.23
2018-09-09T15:34:02.631Z,3.40
2018-09-09T15:36:31.753Z,3.13
2018-09-09T15:39:00.921Z,3.00
2018-09-09T15:41:30.055Z,3.30
2018-09-09T15:43:59.212Z,3.23
2018-09-09T15:46:28.344Z,3.00
2018-09-09T15:48:57.484Z,3.13
2018-09-09T15:51:26.620Z,2.70
2018-09-09T15:53:55.730Z,2.77
2018-09-09T15:56:24.899Z,3.10
2018-09-09T15:58:54.195Z,2.90
2018-09-09T16:01:23.351Z,2.80
2018-09-09T16:03:52.571Z,2.40
2018-09-09T16:06:21.826Z,2.70
2018-09-09T16:08:51.027Z,2.83
2018-09-09T16:11:20.191Z,3.10
2018-09-09T16:13:49.377Z,2.63
2018-09-09T16:16:18.554Z,2.70
2018-09-09T16:18:47.751Z,2.70
2018-09-09T16:21:16.848Z,2.90
2018-09-09T16:23:45.951Z,2.60
2018-09-09T16:26:15.140Z,2.73
2018-09-09T16:28:44.238Z,2.33
2018-09-09T16:31:13.407Z,2.47
2018-09-09T16:33:42.616Z,2.70
2018-09-09T16:36:11.808Z,3.13
2018-09-09T16:38:40.904Z,2.27
2018-09-09T16:41:10.120Z,2.77
2018-09-09T16:43:39.254Z,2.60
2018-09-09T16:46:08.380Z,2.60
2018-09-09T16:48:37.731Z,2.60
2018-09-09T16:51:06.888Z,2.70
2018-09-09T16:53:36.125Z,2.70
2018-09-09T16:56:05.573Z,2.70
2018-09-09T16:58:34.729Z,2.80
2018-09-09T17:01:03.926Z,2.70
2018-09-09T17:03:32.993Z,2.90
2018-09-09T17:06:02.119Z,2.87
2018-09-09T17:08:31.338Z,2.97
2018-09-09T17:11:00.613Z,3.00
2018-09-09T17:13:29.734Z,3.10
2018-09-09T17:15:59.004Z,2.77
2018-09-09T17:18:28.165Z,2.93
2018-09-09T17:20:57.339Z,3.07
2018-09-09T17:23:26.913Z,3.10
2018-09-09T17:25:56.113Z,2.70
2018-09-09T17:28:25.263Z,2.97
2018-09-09T17:30:54.465Z,2.67
2018-09-09T17:33:23.621Z,3.03
2018-09-09T17:35:52.792Z,3.33
2018-09-09T17:38:21.930Z,3.57
2018-09-09T17:40:51.046Z,3.30
2018-09-09T17:43:20.240Z,3.83
2018-09-09T17:45:49.404Z,3.43
2018-09-09T17:48:18.618Z,3.40
2018-09-09T17:50:47.803Z,3.37
2018-09-09T17:53:17.074Z,4.07
2018-09-09T17:55:46.292Z,3.17
2018-09-09T17:58:15.417Z,3.80
2018-09-09T18:00:44.566Z,3.47
2018-09-09T18:03:13.760Z,3.60
2018-09-09T18:05:42.888Z,3.70
2018-09-09T18:08:12.068Z,3.70
2018-09-09T18:10:41.195Z,3.83
2018-09-09T18:13:11.008Z,3.63
2018-09-09T18:15:40.185Z,3.70
2018-09-09T18:18:09.346Z,3.67
2018-09-09T18:20:38.589Z,3.93
2018-09-09T18:23:07.797Z,3.40
2018-09-09T18:25:36.988Z,4.10
2018-09-09T18:28:06.153Z,4.00
2018-09-09T18:30:35.367Z,4.10
2018-09-09T18:33:04.556Z,4.33
2018-09-09T18:35:33.678Z,4.17
2018-09-09T18:38:02.833Z,4.30
2018-09-09T18:40:32.004Z,4.10
2018-09-09T18:43:01.220Z,4.23
2018-09-09T18:45:30.805Z,4.23
2018-09-09T18:47:59.968Z,4.40
2018-09-09T18:50:29.188Z,4.43
2018-09-09T18:52:58.383Z,4.43
2018-09-09T18:55:27.570Z,4.33
2018-09-09T18:57:56.728Z,4.57
2018-09-09T19:00:25.986Z,4.53
2018-09-09T19:02:55.138Z,4.47
2018-09-09T19:05:24.295Z,4.43
2018-09-09T19:07:53.408Z,4.33
2018-09-09T19:10:22.713Z,4.43
2018-09-09T19:12:52.093Z,4.77
2018-09-09T19:15:21.414Z,4.27
2018-09-09T19:17:50.679Z,4.67
2018-09-09T19:20:19.854Z,4.60
2018-09-09T19:22:49.000Z,4.30
2018-09-09T19:25:18.148Z,4.47
2018-09-09T19:27:47.380Z,4.97
2018-09-09T19:30:16.542Z,4.90
2018-09-09T19:32:45.712Z,4.87
2018-09-09T19:35:14.871Z,4.80
2018-09-09T19:37:44.123Z,4.87
2018-09-09T19:40:13.295Z,5.20
2018-09-09T19:42:42.508Z,5.13
2018-09-09T19:45:11.672Z,4.97
2018-09-09T19:47:40.803Z,5.10
2018-09-09T19:50:09.997Z,5.20
2018-09-09T19:52:39.169Z,4.80
2018-09-09T19:55:08.341Z,5.03
2018-09-09T19:57:37.516Z,4.80
2018-09-09T20:00:06.816Z,5.20
2018-09-09T20:02:36.068Z,4.93
2018-09-09T20:05:05.262Z,4.90
2018-09-09T20:07:34.428Z,4.83
2018-09-09T20:10:03.684Z,5.20
2018-09-09T20:12:32.858Z,4.90
2018-09-09T20:15:02.047Z,5.70
2018-09-09T20:17:31.147Z,4.90
2018-09-09T20:20:00.416Z,4.87
2018-09-09T20:22:29.534Z,5.20
2018-09-09T20:24:58.714Z,4.90
2018-09-09T20:27:27.865Z,4.97
2018-09-09T20:29:57.059Z,5.17
2018-09-09T20:32:26.320Z,5.03
2018-09-09T20:34:55.468Z,5.67
2018-09-09T20:37:24.812Z,5.33
2018-09-09T20:39:53.965Z,4.90
2018-09-09T20:42:23.124Z,5.43
2018-09-09T20:44:52.260Z,5.50
2018-09-09T20:47:21.356Z,5.60
2018-09-09T20:49:51.219Z,5.30
2018-09-09T20:52:20.368Z,5.80
2018-09-09T20:54:49.469Z,6.03
2018-09-09T20:57:18.636Z,5.90
2018-09-09T20:59:47.812Z,5.60
2018-09-09T21:02:16.999Z,6.00
2018-09-09T21:04:46.155Z,5.80
2018-09-09T21:07:15.331Z,5.70
2018-09-09T21:09:44.549Z,5.30
2018-09-09T21:12:13.568Z,5.90
2018-09-09T21:14:42.796Z,5.80
2018-09-09T21:17:11.972Z,5.80
2018-09-09T21:19:41.672Z,5.47
2018-09-09T21:22:10.872Z,5.40
2018-09-09T21:24:39.995Z,5.23
2018-09-09T21:27:09.170Z,5.43
2018-09-09T21:29:38.324Z,5.23
2018-09-09T21:32:07.468Z,5.77
2018-09-09T21:34:36.609Z,5.50
2018-09-09T21:37:05.769Z,5.43
2018-09-09T21:39:34.923Z,5.73
2018-09-09T21:42:04.232Z,5.70
2018-09-09T21:44:33.324Z,6.30
2018-09-09T21:47:02.625Z,6.10
2018-09-09T21:49:31.759Z,6.20
2018-09-09T21:52:00.876Z,6.70
2018-09-09T21:54:30.054Z,6.70
2018-09-09T21:56:59.276Z,6.73
2018-09-09T21:59:28.381Z,6.70
2018-09-09T22:02:03.849Z,6.97
2018-09-09T22:04:32.984Z,7.20
2018-09-09T22:07:02.830Z,7.40
2018-09-09T22:09:31.989Z,7.60
2018-09-09T22:12:01.163Z,7.27
2018-09-09T22:14:30.275Z,7.10
2018-09-09T22:16:59.444Z,6.70
2018-09-09T22:19:28.650Z,7.37
2018-09-09T22:21:57.864Z,7.03
2018-09-09T22:24:26.999Z,7.57
2018-09-09T22:26:56.137Z,7.00
2018-09-09T22:29:25.244Z,7.30
2018-09-09T22:31:54.545Z,6.80
2018-09-09T22:34:23.697Z,7.80
2018-09-09T22:36:52.852Z,7.93
2018-09-09T22:39:22.010Z,7.53
2018-09-09T22:41:51.144Z,7.10
2018-09-09T22:44:20.308Z,7.33
2018-09-09T22:46:49.485Z,7.97
2018-09-09T22:49:19.426Z,7.53
2018-09-09T22:51:48.577Z,7.70
2018-09-09T22:54:17.876Z,8.90
2018-09-09T22:56:46.996Z,8.90
2018-09-09T22:59:16.158Z,8.93
2018-09-09T23:01:45.726Z,8.80
2018-09-09T23:04:14.882Z,8.63
2018-09-09T23:06:43.998Z,9.60
2018-09-09T23:09:13.542Z,9.00
2018-09-09T23:11:42.680Z,8.87
2018-09-09T23:14:13.358Z,9.30
2018-09-09T23:16:42.534Z,8.73
2018-09-09T23:19:11.655Z,8.93
2018-09-09T23:21:40.780Z,9.07
2018-09-09T23:24:09.908Z,8.87
2018-09-09T23:26:39.024Z,8.43
2018-09-09T23:29:08.699Z,9.73
2018-09-09T23:31:37.892Z,8.60
2018-09-09T23:34:07.048Z,8.90
2018-09-09T23:36:36.965Z,9.43
2018-09-09T23:39:08.824Z,9.27
2018-09-09T23:41:37.989Z,9.13
2018-09-09T23:44:07.359Z,9.50
2018-09-09T23:46:36.512Z,9.00
2018-09-09T23:49:05.652Z,9.30
2018-09-09T23:51:34.831Z,9.33
2018-09-09T23:54:04.079Z,8.37
2018-09-09T23:56:33.229Z,8.60
2018-09-09T23:59:02.423Z,8.70
